createdAt,value
2023-02-15T00:01:51.030Z,75.76
2023-02-15T00:04:20.213Z,75.88
2023-02-15T00:06:52.987Z,75.78
2023-02-15T00:09:21.673Z,75.64
2023-02-15T00:11:51.981Z,75.63
2023-02-15T00:14:21.612Z,75.90
2023-02-15T00:16:49.763Z,75.88
2023-02-15T00:19:18.339Z,75.89
2023-02-15T00:21:45.914Z,75.89
2023-02-15T00:24:14.635Z,75.97
2023-02-15T00:26:44.712Z,76.00
2023-02-15T00:29:12.290Z,76.01
2023-02-15T00:31:39.432Z,75.97
2023-02-15T00:34:09.015Z,76.25
2023-02-15T00:36:36.117Z,75.99
2023-02-15T00:39:03.269Z,76.27
2023-02-15T00:41:30.288Z,76.14
2023-02-15T00:43:58.330Z,76.39
2023-02-15T00:46:25.455Z,76.11
2023-02-15T00:48:52.535Z,76.43
2023-02-15T00:51:19.581Z,76.49
2023-02-15T00:53:46.520Z,76.26
2023-02-15T00:56:14.490Z,76.63
2023-02-15T00:58:41.640Z,76.17
2023-02-15T01:01:12.815Z,76.50
2023-02-15T01:03:45.070Z,76.37
2023-02-15T01:06:12.274Z,76.43
2023-02-15T01:08:39.568Z,76.77
2023-02-15T01:11:23.456Z,76.66
2023-02-15T01:13:53.669Z,76.82
2023-02-15T01:16:21.063Z,76.95
2023-02-15T01:18:48.266Z,76.93
2023-02-15T01:21:21.442Z,76.98
2023-02-15T01:23:48.492Z,77.17
2023-02-15T01:26:15.954Z,77.46
2023-02-15T01:28:44.963Z,77.04
2023-02-15T01:31:16.588Z,77.49
2023-02-15T01:33:45.648Z,77.47
2023-02-15T01:36:12.713Z,77.33
2023-02-15T01:38:41.127Z,77.43
2023-02-15T01:41:28.319Z,77.61
2023-02-15T01:44:00.983Z,77.18
2023-02-15T01:46:47.178Z,77.24
2023-02-15T01:49:20.791Z,77.35
2023-02-15T01:51:48.859Z,77.49
2023-02-15T01:54:25.979Z,77.73
2023-02-15T01:56:54.031Z,77.82
2023-02-15T01:59:23.312Z,77.65
2023-02-15T02:01:52.604Z,77.62
2023-02-15T02:04:25.915Z,77.69
2023-02-15T02:06:55.720Z,77.54
2023-02-15T02:09:22.792Z,77.90
2023-02-15T02:11:50.399Z,78.01
2023-02-15T02:14:17.988Z,78.14
2023-02-15T02:17:15.387Z,78.10
2023-02-15T02:20:25.195Z,77.96
2023-02-15T02:23:07.592Z,78.30
2023-02-15T02:25:53.442Z,78.06
2023-02-15T02:28:23.515Z,78.11
2023-02-15T02:31:10.006Z,78.22
2023-02-15T02:33:58.749Z,78.21
2023-02-15T02:36:34.168Z,78.55
2023-02-15T02:39:39.179Z,78.36
2023-02-15T02:42:37.126Z,78.42
2023-02-15T02:45:11.119Z,78.46
2023-02-15T02:47:54.103Z,78.26
2023-02-15T02:50:27.542Z,78.40
2023-02-15T02:52:56.569Z,78.48
2023-02-15T02:55:32.795Z,78.58
2023-02-15T02:58:04.706Z,78.58
2023-02-15T03:00:37.237Z,78.37
2023-02-15T03:03:09.055Z,78.64
2023-02-15T03:05:41.476Z,78.75
2023-02-15T03:08:11.964Z,78.81
2023-02-15T03:10:41.753Z,78.65
2023-02-15T03:13:09.243Z,78.67
2023-02-15T03:15:58.077Z,78.51
2023-02-15T03:18:29.839Z,78.75
2023-02-15T03:20:57.484Z,78.76
2023-02-15T03:23:26.528Z,78.56
2023-02-15T03:25:58.827Z,78.67
2023-02-15T03:28:37.053Z,78.66
2023-02-15T03:31:07.062Z,78.67
2023-02-15T03:33:37.029Z,78.75
2023-02-15T03:36:11.068Z,78.71
2023-02-15T03:38:45.194Z,78.66
2023-02-15T03:41:13.947Z,78.93
2023-02-15T03:43:52.918Z,78.87
2023-02-15T03:46:29.208Z,78.75
2023-02-15T03:48:59.572Z,78.77
2023-02-15T03:51:36.064Z,79.17
2023-02-15T03:54:06.180Z,78.83
2023-02-15T03:56:35.421Z,79.17
2023-02-15T03:59:21.184Z,78.75
2023-02-15T04:02:11.016Z,79.08
2023-02-15T04:04:39.809Z,78.93
2023-02-15T04:07:08.783Z,78.78
2023-02-15T04:09:56.119Z,79.16
2023-02-15T04:12:23.196Z,79.03
2023-02-15T04:15:08.651Z,78.89
2023-02-15T04:17:37.483Z,79.09
2023-02-15T04:20:38.084Z,78.89
2023-02-15T04:23:29.621Z,79.09
2023-02-15T04:25:56.310Z,79.40
2023-02-15T04:28:23.158Z,79.60
2023-02-15T04:30:50.182Z,79.60
2023-02-15T04:33:17.070Z,79.62
2023-02-15T04:35:46.177Z,79.73
2023-02-15T04:38:12.954Z,79.54
2023-02-15T04:40:39.765Z,79.58
2023-02-15T04:43:06.536Z,79.50
2023-02-15T04:45:33.335Z,79.63
2023-02-15T04:48:04.389Z,79.61
2023-02-15T04:50:34.351Z,79.24
2023-02-15T04:53:01.065Z,79.33
2023-02-15T04:55:28.037Z,79.50
2023-02-15T04:57:54.965Z,79.51
2023-02-15T05:00:21.904Z,79.06
2023-02-15T05:02:48.868Z,79.05
2023-02-15T05:05:16.272Z,78.98
2023-02-15T05:07:43.222Z,79.12
2023-02-15T05:10:10.413Z,79.00
2023-02-15T05:12:37.253Z,79.11
2023-02-15T05:15:06.282Z,79.02
2023-02-15T05:17:33.232Z,78.94
2023-02-15T05:20:00.363Z,79.10
2023-02-15T05:22:27.139Z,79.14
2023-02-15T05:25:14.473Z,79.01
2023-02-15T05:28:04.414Z,79.04
2023-02-15T05:30:34.854Z,79.44
2023-02-15T05:33:05.557Z,79.26
2023-02-15T05:35:38.577Z,79.32
2023-02-15T05:38:05.416Z,79.36
2023-02-15T05:41:13.263Z,79.23
2023-02-15T05:44:01.501Z,79.22
2023-02-15T05:46:28.581Z,79.46
2023-02-15T05:49:07.454Z,79.39
2023-02-15T05:51:36.477Z,79.25
2023-02-15T05:54:03.232Z,79.12
2023-02-15T05:56:30.090Z,79.36
2023-02-15T05:59:00.112Z,79.39
2023-02-15T06:01:26.929Z,79.47
2023-02-15T06:03:54.112Z,79.51
2023-02-15T06:06:21.304Z,79.08
2023-02-15T06:08:48.037Z,79.57
2023-02-15T06:11:18.046Z,79.38
2023-02-15T06:13:44.939Z,79.33
2023-02-15T06:16:12.105Z,79.43
2023-02-15T06:18:38.947Z,79.31
2023-02-15T06:21:05.830Z,79.39
2023-02-15T06:23:32.739Z,79.61
2023-02-15T06:25:59.623Z,79.39
2023-02-15T06:28:35.119Z,79.13
2023-02-15T06:31:06.991Z,79.20
2023-02-15T06:33:40.317Z,79.57
2023-02-15T06:36:09.875Z,79.50
2023-02-15T06:38:39.798Z,79.31
2023-02-15T06:41:06.745Z,79.41
2023-02-15T06:43:36.640Z,79.27
2023-02-15T06:46:09.108Z,79.44
2023-02-15T06:48:36.371Z,79.53
2023-02-15T06:51:06.165Z,79.51
2023-02-15T06:53:33.081Z,79.65
2023-02-15T06:56:10.132Z,79.85
2023-02-15T06:58:41.078Z,79.72
2023-02-15T07:01:12.537Z,79.62
2023-02-15T07:03:43.857Z,79.88
2023-02-15T07:06:38.327Z,79.91
2023-02-15T07:09:07.916Z,79.83
2023-02-15T07:11:53.554Z,79.74
2023-02-15T07:14:20.299Z,80.14
2023-02-15T07:16:47.069Z,80.13
2023-02-15T07:19:14.079Z,80.12
2023-02-15T07:21:40.749Z,80.19
2023-02-15T07:24:07.511Z,80.22
2023-02-15T07:26:34.720Z,80.19
2023-02-15T07:29:01.813Z,80.13
2023-02-15T07:31:28.637Z,80.36
2023-02-15T07:33:55.310Z,80.55
2023-02-15T07:36:22.017Z,80.55
2023-02-15T07:38:48.827Z,80.33
2023-02-15T07:41:16.583Z,80.27
2023-02-15T07:43:45.479Z,80.51
2023-02-15T07:46:14.837Z,80.59
2023-02-15T07:48:42.091Z,80.25
2023-02-15T07:51:10.328Z,80.17
2023-02-15T07:53:38.173Z,80.43
2023-02-15T07:56:07.689Z,80.36
2023-02-15T07:58:53.880Z,80.42
2023-02-15T08:01:31.742Z,80.11
2023-02-15T08:04:01.885Z,80.34
2023-02-15T08:06:31.149Z,80.41
2023-02-15T08:08:57.996Z,80.42
2023-02-15T08:11:37.674Z,80.37
2023-02-15T08:14:21.700Z,80.45
2023-02-15T08:16:53.353Z,80.57
2023-02-15T08:19:26.024Z,80.33
2023-02-15T08:21:59.211Z,80.19
2023-02-15T08:24:33.355Z,80.33
2023-02-15T08:27:00.341Z,80.32
2023-02-15T08:29:31.796Z,80.24
2023-02-15T08:32:05.695Z,80.37
2023-02-15T08:34:34.767Z,80.23
2023-02-15T08:37:01.847Z,80.55
2023-02-15T08:39:28.558Z,80.30
2023-02-15T08:41:55.609Z,80.44
2023-02-15T08:44:22.372Z,80.56
2023-02-15T08:46:50.151Z,80.46
2023-02-15T08:49:22.233Z,80.48
2023-02-15T08:51:49.836Z,80.72
2023-02-15T08:54:21.914Z,80.79
2023-02-15T08:56:49.032Z,80.80
2023-02-15T08:59:20.935Z,80.71
2023-02-15T09:01:48.949Z,80.71
2023-02-15T09:04:16.905Z,80.75
2023-02-15T09:06:47.642Z,80.49
2023-02-15T09:09:15.778Z,80.69
2023-02-15T09:11:44.352Z,80.84
2023-02-15T09:14:14.629Z,80.97
2023-02-15T09:16:50.936Z,80.79
2023-02-15T09:19:19.140Z,80.97
2023-02-15T09:21:46.296Z,80.94
2023-02-15T09:24:17.496Z,80.86
2023-02-15T09:26:46.416Z,80.73
2023-02-15T09:29:14.381Z,80.70
2023-02-15T09:31:45.385Z,80.82
2023-02-15T09:34:22.183Z,80.79
2023-02-15T09:36:52.334Z,81.45
2023-02-15T09:39:29.121Z,81.45
2023-02-15T09:42:14.145Z,81.42
2023-02-15T09:45:04.528Z,81.44
2023-02-15T09:47:44.779Z,81.63
2023-02-15T09:50:32.499Z,81.71
2023-02-15T09:53:07.879Z,81.60
2023-02-15T09:55:54.567Z,81.85
2023-02-15T09:58:44.385Z,81.76
2023-02-15T10:01:26.002Z,81.91
2023-02-15T10:04:05.209Z,81.86
2023-02-15T10:07:05.988Z,81.88
2023-02-15T10:09:59.108Z,81.71
2023-02-15T10:13:03.381Z,81.65
2023-02-15T10:16:15.281Z,81.84
2023-02-15T10:18:42.983Z,81.73
2023-02-15T10:21:43.730Z,81.78
2023-02-15T10:24:27.145Z,81.77
2023-02-15T10:26:56.855Z,81.50
2023-02-15T10:29:41.447Z,81.45
2023-02-15T10:32:27.270Z,81.37
2023-02-15T10:35:06.158Z,81.37
2023-02-15T10:37:45.867Z,81.26
2023-02-15T10:40:50.596Z,81.10
2023-02-15T10:43:40.218Z,81.41
2023-02-15T10:46:13.200Z,81.30
2023-02-15T10:48:53.473Z,80.96
2023-02-15T10:51:40.437Z,81.49
2023-02-15T10:54:19.319Z,81.12
2023-02-15T10:56:49.354Z,81.29
2023-02-15T10:59:30.114Z,81.12
2023-02-15T11:02:21.045Z,81.21
2023-02-15T11:04:59.760Z,81.33
2023-02-15T11:07:34.952Z,81.33
2023-02-15T11:10:03.273Z,81.58
2023-02-15T11:12:30.755Z,81.14
2023-02-15T11:15:28.057Z,81.03
2023-02-15T11:18:00.233Z,81.26
2023-02-15T11:20:31.976Z,81.11
2023-02-15T11:22:59.331Z,81.50
2023-02-15T11:25:34.982Z,80.86
2023-02-15T11:28:04.981Z,81.19
2023-02-15T11:30:44.812Z,80.86
2023-02-15T11:33:24.121Z,81.08
2023-02-15T11:36:14.985Z,81.24
2023-02-15T11:38:44.584Z,81.17
2023-02-15T11:41:13.448Z,81.02
2023-02-15T11:43:55.999Z,80.96
2023-02-15T11:46:23.116Z,81.03
2023-02-15T11:48:50.206Z,80.93
2023-02-15T11:51:22.128Z,80.92
2023-02-15T11:53:50.880Z,80.62
2023-02-15T11:56:20.073Z,80.53
2023-02-15T11:58:53.474Z,80.40
2023-02-15T12:01:45.289Z,80.35
2023-02-15T12:04:44.475Z,80.29
2023-02-15T12:07:29.891Z,79.90
2023-02-15T12:10:14.949Z,80.15
2023-02-15T12:12:41.913Z,79.81
2023-02-15T12:15:10.350Z,79.67
2023-02-15T12:17:40.694Z,79.31
2023-02-15T12:20:23.171Z,79.44
2023-02-15T12:22:55.118Z,79.56
2023-02-15T12:25:30.983Z,79.77
2023-02-15T12:27:57.676Z,79.85
2023-02-15T12:30:31.982Z,79.63
2023-02-15T12:33:03.834Z,79.16
2023-02-15T12:35:33.145Z,78.47
2023-02-15T12:38:06.509Z,78.08
2023-02-15T12:40:35.080Z,77.49
2023-02-15T12:43:09.683Z,76.24
2023-02-15T12:45:38.430Z,75.62
2023-02-15T12:48:15.119Z,75.09
2023-02-15T12:50:43.319Z,74.35
2023-02-15T12:53:20.223Z,73.84
2023-02-15T12:55:55.251Z,73.35
2023-02-15T12:58:26.360Z,73.20
2023-02-15T13:01:09.666Z,72.52
2023-02-15T13:03:37.038Z,72.28
2023-02-15T13:06:08.438Z,71.88
2023-02-15T13:08:40.771Z,71.01
2023-02-15T13:11:12.356Z,70.73
2023-02-15T13:13:54.590Z,70.08
2023-02-15T13:16:31.240Z,69.95
2023-02-15T13:18:58.937Z,69.76
2023-02-15T13:21:33.949Z,69.52
2023-02-15T13:24:07.110Z,69.10
2023-02-15T13:26:35.986Z,69.32
2023-02-15T13:29:30.227Z,68.86
2023-02-15T13:32:09.129Z,68.62
2023-02-15T13:34:37.554Z,68.62
2023-02-15T13:37:17.669Z,68.68
2023-02-15T13:39:56.463Z,68.38
2023-02-15T13:42:32.061Z,67.65
2023-02-15T13:45:31.624Z,67.30
2023-02-15T13:48:22.267Z,66.87
2023-02-15T13:50:51.932Z,66.81
2023-02-15T13:53:40.256Z,66.72
2023-02-15T13:56:15.302Z,66.53
2023-02-15T13:59:05.172Z,65.90
2023-02-15T14:01:40.829Z,65.99
2023-02-15T14:04:23.428Z,65.88
2023-02-15T14:06:59.461Z,65.80
2023-02-15T14:09:44.744Z,66.12
2023-02-15T14:12:24.910Z,65.69
2023-02-15T14:15:23.647Z,65.94
2023-02-15T14:18:28.368Z,65.71
2023-02-15T14:21:02.231Z,65.89
2023-02-15T14:23:43.623Z,66.02
2023-02-15T14:26:16.313Z,65.99
2023-02-15T14:29:04.525Z,65.56
2023-02-15T14:31:42.247Z,65.06
2023-02-15T14:34:30.240Z,65.09
2023-02-15T14:36:59.722Z,64.68
2023-02-15T14:39:58.262Z,64.80
2023-02-15T14:42:32.128Z,64.00
2023-02-15T14:45:20.568Z,63.69
2023-02-15T14:47:59.198Z,63.81
2023-02-15T14:50:32.210Z,62.80
2023-02-15T14:53:17.778Z,62.40
2023-02-15T14:55:44.676Z,62.25
2023-02-15T14:58:13.390Z,61.81
2023-02-15T15:00:45.886Z,61.64
2023-02-15T15:03:22.935Z,61.53
2023-02-15T15:05:54.992Z,61.45
2023-02-15T15:08:39.077Z,61.73
2023-02-15T15:11:44.002Z,61.78
2023-02-15T15:14:32.543Z,62.02
2023-02-15T15:17:12.062Z,62.13
2023-02-15T15:19:52.040Z,62.53
2023-02-15T15:22:26.776Z,62.45
2023-02-15T15:24:57.614Z,62.46
2023-02-15T15:27:46.455Z,62.46
2023-02-15T15:30:36.508Z,62.93
2023-02-15T15:33:32.937Z,62.64
2023-02-15T15:36:26.964Z,62.67
2023-02-15T15:39:33.549Z,62.94
2023-02-15T15:42:35.535Z,63.46
2023-02-15T15:45:24.506Z,63.58
2023-02-15T15:48:07.330Z,64.05
2023-02-15T15:50:44.624Z,64.49
2023-02-15T15:53:20.857Z,64.56
2023-02-15T15:55:48.820Z,64.91
2023-02-15T15:58:18.181Z,65.17
2023-02-15T16:00:48.684Z,65.48
2023-02-15T16:03:17.393Z,65.81
2023-02-15T16:05:49.371Z,65.97
2023-02-15T16:08:29.349Z,66.20
2023-02-15T16:10:56.380Z,66.55
2023-02-15T16:13:26.758Z,66.67
2023-02-15T16:15:55.470Z,67.10
2023-02-15T16:18:26.174Z,67.31
2023-02-15T16:20:58.372Z,67.62
2023-02-15T16:23:37.414Z,67.98
2023-02-15T16:26:15.121Z,68.55
2023-02-15T16:28:50.111Z,68.59
2023-02-15T16:31:17.589Z,68.72
2023-02-15T16:33:48.382Z,69.17
2023-02-15T16:36:21.277Z,69.39
2023-02-15T16:39:08.109Z,69.54
2023-02-15T16:44:33.995Z,69.99
2023-02-15T16:47:13.248Z,70.66
2023-02-15T16:50:33.343Z,70.90
2023-02-15T16:53:02.623Z,71.02
2023-02-15T16:55:36.846Z,71.40
2023-02-15T16:58:08.692Z,71.46
2023-02-15T17:00:37.747Z,71.27
2023-02-15T17:03:11.635Z,71.59
2023-02-15T17:05:48.269Z,71.80
2023-02-15T17:08:36.469Z,72.01
2023-02-15T17:11:34.817Z,72.63
2023-02-15T17:14:15.869Z,72.71
2023-02-15T17:16:50.189Z,72.81
2023-02-15T17:19:55.648Z,73.00
2023-02-15T17:22:25.267Z,73.22
2023-02-15T17:24:59.984Z,73.34
2023-02-15T17:27:29.440Z,73.54
2023-02-15T17:30:01.154Z,73.97
2023-02-15T17:32:32.442Z,73.90
2023-02-15T17:35:09.558Z,74.07
2023-02-15T17:37:39.239Z,74.32
2023-02-15T17:40:19.625Z,74.20
2023-02-15T17:42:46.449Z,74.38
2023-02-15T17:45:15.362Z,74.39
2023-02-15T17:47:43.377Z,74.57
2023-02-15T17:50:20.453Z,74.42
2023-02-15T17:52:47.849Z,74.68
2023-02-15T17:55:36.125Z,75.03
2023-02-15T17:58:08.862Z,74.81
2023-02-15T18:00:57.931Z,74.88
2023-02-15T18:03:44.506Z,75.08
2023-02-15T18:06:32.610Z,75.21
2023-02-15T18:09:18.542Z,75.15
2023-02-15T18:11:48.882Z,75.31
2023-02-15T18:14:16.041Z,75.50
2023-02-15T18:16:45.811Z,75.48
2023-02-15T18:19:21.844Z,75.84
2023-02-15T18:21:49.072Z,75.78
2023-02-15T18:24:26.283Z,75.68
2023-02-15T18:26:54.904Z,75.94
2023-02-15T18:29:24.654Z,75.52
2023-02-15T18:31:59.988Z,75.87
2023-02-15T18:35:00.740Z,75.71
2023-02-15T18:37:30.258Z,75.80
2023-02-15T18:39:58.168Z,75.91
2023-02-15T18:42:36.876Z,75.67
2023-02-15T18:45:22.274Z,75.59
2023-02-15T18:47:49.402Z,75.68
2023-02-15T18:50:20.663Z,75.44
2023-02-15T18:52:48.960Z,75.63
2023-02-15T18:55:21.442Z,75.50
2023-02-15T18:57:49.362Z,75.51
2023-02-15T19:00:18.884Z,75.45
2023-02-15T19:02:50.902Z,75.59
2023-02-15T19:05:20.654Z,75.45
2023-02-15T19:07:48.785Z,75.78
2023-02-15T19:10:19.753Z,75.75
2023-02-15T19:12:48.299Z,75.60
2023-02-15T19:15:26.708Z,75.64
2023-02-15T19:17:56.707Z,76.17
2023-02-15T19:20:31.656Z,75.89
2023-02-15T19:22:59.436Z,76.17
2023-02-15T19:25:28.824Z,75.78
2023-02-15T19:27:57.603Z,75.63
2023-02-15T19:30:30.285Z,75.54
2023-02-15T19:32:58.181Z,75.42
2023-02-15T19:35:32.432Z,75.79
2023-02-15T19:38:07.905Z,75.81
2023-02-15T19:40:37.952Z,76.09
2023-02-15T19:43:19.398Z,76.26
2023-02-15T19:45:46.838Z,76.12
2023-02-15T19:48:14.934Z,76.42
2023-02-15T19:50:43.798Z,76.29
2023-02-15T19:53:24.261Z,76.14
2023-02-15T19:55:52.349Z,76.18
2023-02-15T19:58:22.269Z,76.12
2023-02-15T20:00:52.559Z,76.27
2023-02-15T20:06:54.586Z,76.17
2023-02-15T20:09:45.704Z,76.05
2023-02-15T20:12:39.746Z,76.02
2023-02-15T20:15:44.086Z,75.88
2023-02-15T20:18:33.207Z,75.84
2023-02-15T20:21:26.071Z,75.98
2023-02-15T20:24:18.882Z,75.55
2023-02-15T20:26:46.152Z,75.61
2023-02-15T20:29:16.959Z,75.14
2023-02-15T20:31:44.305Z,75.19
2023-02-15T20:34:11.848Z,75.04
2023-02-15T20:36:41.891Z,75.01
2023-02-15T20:39:18.838Z,75.11
2023-02-15T20:41:49.960Z,75.24
2023-02-15T20:44:30.957Z,75.37
2023-02-15T20:47:07.818Z,75.69
2023-02-15T20:49:38.629Z,75.38
2023-02-15T20:52:18.304Z,75.72
2023-02-15T20:54:48.583Z,76.21
2023-02-15T20:57:18.669Z,76.02
2023-02-15T20:59:45.853Z,76.42
2023-02-15T21:02:34.508Z,76.63
2023-02-15T21:05:02.092Z,76.74
2023-02-15T21:07:29.264Z,76.82
2023-02-15T21:09:56.386Z,76.52
2023-02-15T21:12:26.034Z,76.61
2023-02-15T21:14:58.156Z,76.38
2023-02-15T21:17:27.702Z,76.44
2023-02-15T21:19:55.048Z,76.04
2023-02-15T21:22:28.388Z,76.24
2023-02-15T21:24:55.526Z,75.80
2023-02-15T21:27:22.744Z,75.67
2023-02-15T21:29:53.412Z,75.93
2023-02-15T21:32:23.253Z,75.60
2023-02-15T21:34:50.364Z,75.72
2023-02-15T21:37:28.578Z,75.64
2023-02-15T21:39:55.672Z,75.89
2023-02-15T21:42:41.344Z,75.50
2023-02-15T21:45:37.084Z,75.61
2023-02-15T21:48:04.291Z,75.63
2023-02-15T21:50:50.105Z,75.59
2023-02-15T21:53:46.051Z,75.15
2023-02-15T21:56:16.653Z,75.46
2023-02-15T21:58:43.814Z,75.64
2023-02-15T22:01:21.159Z,75.78
2023-02-15T22:03:48.715Z,75.68
2023-02-15T22:06:15.649Z,75.79
2023-02-15T22:08:45.496Z,75.92
2023-02-15T22:11:22.792Z,75.51
2023-02-15T22:13:50.384Z,75.46
2023-02-15T22:16:21.982Z,75.80
2023-02-15T22:18:51.463Z,75.36
2023-02-15T22:21:19.386Z,75.52
2023-02-15T22:23:50.334Z,75.63
2023-02-15T22:26:27.583Z,75.61
2023-02-15T22:28:54.685Z,75.52
2023-02-15T22:31:22.853Z,75.89
2023-02-15T22:33:54.805Z,75.58
2023-02-15T22:36:27.158Z,75.80
2023-02-15T22:38:57.778Z,75.75
2023-02-15T22:41:26.056Z,75.71
2023-02-15T22:43:53.339Z,75.57
2023-02-15T22:46:24.288Z,75.66
2023-02-15T22:48:53.933Z,75.42
2023-02-15T22:51:24.019Z,75.51
2023-02-15T22:53:52.502Z,75.66
2023-02-15T22:56:23.392Z,75.19
2023-02-15T22:58:50.720Z,75.44
2023-02-15T23:01:28.050Z,75.20
2023-02-15T23:03:55.173Z,75.29
2023-02-15T23:06:22.251Z,75.26
2023-02-15T23:08:49.322Z,74.99
2023-02-15T23:11:17.268Z,75.27
2023-02-15T23:13:44.364Z,75.26
2023-02-15T23:16:15.307Z,75.06
2023-02-15T23:18:44.862Z,75.31
2023-02-15T23:21:24.207Z,75.31
2023-02-15T23:23:54.296Z,75.22
2023-02-15T23:26:26.293Z,75.30
2023-02-15T23:28:54.887Z,75.49
2023-02-15T23:31:31.882Z,75.59
2023-02-15T23:34:11.091Z,75.45
2023-02-15T23:36:39.400Z,75.56
2023-02-15T23:39:34.236Z,75.63
2023-02-15T23:42:04.380Z,75.39
2023-02-15T23:44:31.698Z,75.56
2023-02-15T23:46:59.366Z,75.38
2023-02-15T23:49:29.159Z,75.49
2023-02-15T23:52:02.571Z,75.38
2023-02-15T23:54:33.997Z,75.69
2023-02-15T23:57:02.365Z,75.65
2023-02-15T23:59:31.369Z,75.56
